Time;durP1;ratioP1;P1;durP2;ratioP2;P2;SDS_P1;SDS_P2;PMS_P1;PMS_P2;Temp;Humidity;BMP_temperature;BMP_pressure;BME280_temperature;BME280_humidity;BME280_pressure;Samples;Min_cycle;Max_cycle;Signal;HPM_P1;HPM_P2
2021/06/02 00:02:23;;;;;;;23.77;12.85;;;;;;;5.94;79.31;98463.08;1750051;81;20881;-77
2021/06/02 00:04:53;;;;;;;20.68;12.03;;;;;;;5.93;79.28;98462.80;1750377;82;21045;-77
2021/06/02 00:07:24;;;;;;;20.60;13.15;;;;;;;5.89;79.71;98467.50;1750099;82;20997;-77
2021/06/02 00:09:51;;;;;;;17.87;11.48;;;;;;;5.85;79.57;98462.32;1749958;81;20976;-76
2021/06/02 00:12:17;;;;;;;21.33;11.12;;;;;;;5.82;78.92;98460.12;1750006;82;21130;-76
2021/06/02 00:14:43;;;;;;;21.33;10.70;;;;;;;5.77;78.97;98458.66;1750277;82;21462;-76
2021/06/02 00:17:09;;;;;;;19.32;12.00;;;;;;;5.70;77.79;98458.78;1750215;82;20957;-76
2021/06/02 00:19:36;;;;;;;22.62;12.75;;;;;;;5.66;78.24;98453.08;1750941;82;21025;-76
2021/06/02 00:22:05;;;;;;;18.50;10.65;;;;;;;5.65;79.17;98456.01;1750929;82;21323;-76
2021/06/02 00:24:31;;;;;;;15.58;9.78;;;;;;;5.59;80.44;98455.08;1750612;82;21106;-77
2021/06/02 00:26:59;;;;;;;15.03;9.48;;;;;;;5.59;79.77;98455.08;1750949;82;20885;-77
2021/06/02 00:29:29;;;;;;;16.10;9.73;;;;;;;5.57;80.55;98450.47;1722556;82;20839;-77
2021/06/02 00:31:55;;;;;;;20.02;9.40;;;;;;;5.59;80.99;98452.39;1750354;82;20918;-77
2021/06/02 00:34:21;;;;;;;18.32;10.78;;;;;;;5.60;80.61;98452.67;1722514;82;20915;-77
2021/06/02 00:36:47;;;;;;;20.65;10.13;;;;;;;5.66;79.88;98454.95;1750392;82;21852;-77
2021/06/02 00:39:13;;;;;;;19.02;10.40;;;;;;;5.65;79.10;98449.28;1750169;82;20958;-77
2021/06/02 00:41:41;;;;;;;19.80;11.18;;;;;;;5.62;79.34;98449.74;1750865;82;20873;-77
2021/06/02 00:44:12;;;;;;;21.75;11.50;;;;;;;5.59;79.98;98452.39;1750137;81;20949;-77
2021/06/02 00:46:39;;;;;;;22.95;11.08;;;;;;;5.55;79.64;98453.08;1750433;82;20803;-76
2021/06/02 00:49:07;;;;;;;19.32;12.58;;;;;;;5.49;79.35;98453.52;1722657;82;22000;-76
2021/06/02 00:51:34;;;;;;;20.82;12.43;;;;;;;5.47;79.49;98454.78;1750359;82;21652;-77
2021/06/02 00:54:00;;;;;;;16.15;10.63;;;;;;;5.42;80.08;98453.34;1750182;82;20977;-77
2021/06/02 00:56:41;;;;;;;21.50;11.12;;;;;;;5.37;78.86;98450.83;1750332;82;21000;-77
2021/06/02 00:59:09;;;;;;;14.43;9.70;;;;;;;5.30;78.31;98448.81;1750580;82;20986;-77
2021/06/02 01:01:35;;;;;;;20.12;10.13;;;;;;;5.27;78.73;98449.27;1750305;82;21462;-77
2021/06/02 01:04:04;;;;;;;20.00;9.43;;;;;;;5.22;81.12;98450.52;1750370;82;20915;-77
2021/06/02 01:06:34;;;;;;;15.28;9.10;;;;;;;5.26;80.82;98452.19;1750239;82;21002;-77
2021/06/02 01:09:05;;;;;;;14.70;9.75;;;;;;;5.24;78.60;98452.96;1750078;82;20934;-77
2021/06/02 01:11:31;;;;;;;17.32;10.65;;;;;;;5.16;79.91;98451.44;1722835;82;20985;-77
2021/06/02 01:13:59;;;;;;;19.52;9.03;;;;;;;5.13;81.75;98458.64;1750260;82;21309;-77
2021/06/02 01:16:29;;;;;;;15.25;8.78;;;;;;;5.16;79.67;98448.75;1750436;82;21017;-77
2021/06/02 01:18:55;;;;;;;12.45;8.60;;;;;;;5.18;79.16;98451.20;1750298;82;20934;-77
2021/06/02 01:21:23;;;;;;;14.87;9.50;;;;;;;5.18;81.06;98447.17;1750438;82;21076;-76
2021/06/02 01:23:51;;;;;;;17.57;10.95;;;;;;;5.19;81.49;98454.17;1750195;82;21026;-76
2021/06/02 01:26:18;;;;;;;18.80;10.30;;;;;;;5.19;81.11;98456.86;1750616;82;21419;-77
2021/06/02 01:28:44;;;;;;;16.57;10.72;;;;;;;5.13;81.63;98461.33;1750082;82;21122;-77
2021/06/02 01:31:17;;;;;;;18.07;9.48;;;;;;;5.11;79.44;98462.06;1722677;82;21032;-77
2021/06/02 01:34:17;;;;;;;19.32;10.68;;;;;;;5.05;79.03;98461.14;1723986;82;20966;-77
2021/06/02 01:37:34;;;;;;;18.65;9.95;;;;;;;5.01;78.05;98461.83;1725135;82;20970;-77
2021/06/02 01:40:42;;;;;;;15.28;10.65;;;;;;;4.86;80.01;98470.86;1749610;82;21396;-77
2021/06/02 01:43:51;;;;;;;16.82;10.30;;;;;;;4.79;80.09;98472.33;1750465;82;20974;-76
2021/06/02 01:46:54;;;;;;;17.75;11.40;;;;;;;4.74;80.17;98478.38;1750350;82;20984;-77
2021/06/02 01:50:11;;;;;;;14.25;8.93;;;;;;;4.65;80.84;98477.61;1749936;82;20953;-76
2021/06/02 01:53:01;;;;;;;16.60;9.98;;;;;;;4.59;81.33;98476.65;1750307;82;20946;-77
2021/06/02 01:56:06;;;;;;;19.00;10.08;;;;;;;4.53;81.20;98474.38;1750362;82;21055;-76
2021/06/02 01:59:12;;;;;;;15.00;10.00;;;;;;;4.55;81.09;98475.48;1729010;82;21017;-77
2021/06/02 02:02:06;;;;;;;16.02;8.90;;;;;;;4.55;81.98;98476.83;1736126;82;21025;-77
2021/06/02 02:05:15;;;;;;;12.55;8.38;;;;;;;4.53;80.38;98482.43;1749431;82;20942;-76
2021/06/02 02:08:19;;;;;;;17.55;10.28;;;;;;;4.48;82.39;98482.29;1750690;82;20891;-77
2021/06/02 02:10:49;;;;;;;16.00;9.35;;;;;;;4.51;81.54;98481.00;1747309;82;21392;-77
2021/06/02 02:13:27;;;;;;;17.25;10.28;;;;;;;4.43;81.98;98488.03;1750121;81;20898;-77
2021/06/02 02:16:24;;;;;;;17.17;9.78;;;;;;;4.41;81.12;98487.45;1722564;82;20978;-76
2021/06/02 02:19:18;;;;;;;17.67;10.60;;;;;;;4.37;83.36;98482.27;1738384;81;21025;-76
2021/06/02 02:22:23;;;;;;;19.95;10.70;;;;;;;4.37;84.05;98479.58;1736442;82;21407;-77
2021/06/02 02:25:01;;;;;;;16.23;8.70;;;;;;;4.44;82.86;98480.28;1735875;82;21176;-77
2021/06/02 02:27:38;;;;;;;11.60;7.75;;;;;;;4.41;82.34;98476.72;1735389;82;21659;-76
2021/06/02 02:30:10;;;;;;;15.95;9.03;;;;;;;4.40;80.42;98479.93;1736498;82;21391;-77
2021/06/02 02:32:54;;;;;;;17.73;9.30;;;;;;;4.34;81.37;98483.52;1716211;82;20942;-77
2021/06/02 02:36:02;;;;;;;14.35;9.10;;;;;;;4.35;81.58;98488.36;1673602;82;21383;-77
2021/06/02 02:38:42;;;;;;;13.70;8.73;;;;;;;4.36;81.55;98490.84;1736212;81;21714;-77
2021/06/02 02:41:58;;;;;;;15.13;9.33;;;;;;;4.33;81.27;98482.41;1736399;82;20959;-77
2021/06/02 02:44:48;;;;;;;16.05;9.65;;;;;;;4.33;81.09;98491.27;1736114;82;21365;-76
2021/06/02 02:47:48;;;;;;;15.43;9.68;;;;;;;4.31;80.12;98493.90;1736399;81;21199;-77
2021/06/02 02:50:47;;;;;;;13.58;9.45;;;;;;;4.22;80.34;98492.87;1736395;82;20998;-76
2021/06/02 02:53:23;;;;;;;17.45;9.33;;;;;;;4.22;80.70;98489.38;1736232;81;21436;-76
2021/06/02 02:55:57;;;;;;;21.45;11.55;;;;;;;4.17;81.56;98499.42;1715945;82;21042;-76
2021/06/02 02:59:02;;;;;;;18.30;10.68;;;;;;;4.21;80.53;98503.84;1736059;82;21344;-77
2021/06/02 03:01:34;;;;;;;17.23;11.20;;;;;;;4.21;82.05;98505.17;1736312;82;20910;-75
2021/06/02 03:04:12;;;;;;;18.27;9.75;;;;;;;4.17;82.45;98499.42;1735364;82;20965;-77
2021/06/02 03:06:44;;;;;;;20.90;10.88;;;;;;;4.18;82.60;98502.41;1736490;82;21339;-78
2021/06/02 03:09:33;;;;;;;17.17;8.83;;;;;;;4.21;82.62;98507.86;1736110;82;21002;-77
2021/06/02 03:12:14;;;;;;;13.98;9.70;;;;;;;4.26;82.58;98509.32;1736549;82;20950;-77
2021/06/02 03:14:49;;;;;;;16.93;10.05;;;;;;;4.31;81.98;98509.47;1736415;82;20951;-78
2021/06/02 03:17:36;;;;;;;14.95;9.75;;;;;;;4.36;81.48;98523.03;1736401;81;21383;-78
2021/06/02 03:20:16;;;;;;;20.72;10.68;;;;;;;4.35;81.77;98516.53;1736200;82;21702;-76
2021/06/02 03:23:04;;;;;;;15.43;10.68;;;;;;;4.39;81.32;98515.86;1736527;82;20959;-77
2021/06/02 03:25:54;;;;;;;16.70;10.65;;;;;;;4.48;81.42;98520.39;1736185;82;20891;-77
2021/06/02 03:28:55;;;;;;;19.82;10.25;;;;;;;4.51;80.98;98523.42;1735875;82;20959;-76
2021/06/02 03:31:33;;;;;;;17.62;10.30;;;;;;;4.59;81.69;98524.96;1711642;82;21236;-76
2021/06/02 03:34:22;;;;;;;19.48;11.73;;;;;;;4.63;81.18;98517.29;1735992;82;21275;-77
2021/06/02 03:37:34;;;;;;;22.62;12.58;;;;;;;4.66;81.95;98524.34;1736314;82;21053;-76
2021/06/02 03:40:35;;;;;;;28.90;14.38;;;;;;;4.73;81.49;98521.05;1736445;81;20902;-77
2021/06/02 03:43:24;;;;;;;25.77;15.05;;;;;;;4.86;81.25;98528.06;1735042;82;20943;-76
2021/06/02 03:46:15;;;;;;;;;;;;;;;5.05;80.72;98535.02;1738923;82;21006;-77
2021/06/02 03:49:07;;;;;;;22.17;12.73;;;;;;;5.22;80.69;98532.98;1735738;82;21005;-77
2021/06/02 03:51:41;;;;;;;21.33;15.23;;;;;;;5.38;80.12;98534.95;1735813;82;20966;-77
2021/06/02 03:54:34;;;;;;;24.92;15.53;;;;;;;5.48;79.44;98531.71;1736211;82;21046;-77
2021/06/02 03:57:24;;;;;;;23.07;14.28;;;;;;;5.63;79.25;98529.34;1736408;82;20962;-77
2021/06/02 04:00:09;;;;;;;21.27;13.00;;;;;;;5.84;78.93;98529.27;1736587;82;20970;-77
2021/06/02 04:03:05;;;;;;;26.07;11.20;;;;;;;5.98;79.13;98537.38;1736296;81;21332;-77
2021/06/02 04:05:36;;;;;;;14.85;9.55;;;;;;;6.17;78.92;98536.72;1665853;85;20984;-77
2021/06/02 04:08:26;;;;;;;21.30;12.75;;;;;;;6.41;78.25;98536.09;1721737;82;20986;-77
2021/06/02 04:11:27;;;;;;;22.42;12.43;;;;;;;6.58;78.24;98539.67;1736414;81;21443;-78
2021/06/02 04:14:02;;;;;;;20.43;12.05;;;;;;;6.79;77.69;98536.81;1736212;82;20934;-77
2021/06/02 04:16:34;;;;;;;27.05;16.82;;;;;;;6.94;77.18;98543.00;1716290;82;21326;-76
2021/06/02 04:19:06;;;;;;;25.10;16.60;;;;;;;6.96;76.72;98542.22;1745502;81;20942;-77
2021/06/02 04:21:34;;;;;;;17.92;12.75;;;;;;;7.03;76.52;98541.53;1750133;82;21406;-76
2021/06/02 04:24:04;;;;;;;16.62;11.00;;;;;;;7.13;76.33;98545.74;1750337;82;20946;-76
2021/06/02 04:26:32;;;;;;;14.90;10.25;;;;;;;7.28;76.17;98544.65;1750458;82;20973;-76
2021/06/02 04:29:00;;;;;;;12.18;10.18;;;;;;;7.50;76.10;98543.35;1750436;82;21430;-76
2021/06/02 04:31:28;;;;;;;20.45;11.40;;;;;;;7.76;75.75;98541.02;1750512;82;21060;-76
2021/06/02 04:33:58;;;;;;;13.08;8.45;;;;;;;8.03;75.30;98540.61;1750291;82;20926;-77
2021/06/02 04:36:25;;;;;;;14.43;9.88;;;;;;;8.28;73.65;98548.17;1750564;82;21076;-76
2021/06/02 04:38:56;;;;;;;20.65;9.95;;;;;;;8.18;73.71;98544.01;1750241;81;21363;-76
2021/06/02 04:41:25;;;;;;;17.27;10.45;;;;;;;8.26;73.26;98547.63;1750374;82;21221;-76
2021/06/02 04:43:58;;;;;;;25.10;11.65;;;;;;;8.42;73.63;98557.56;1750197;81;20911;-76
2021/06/02 04:46:24;;;;;;;15.95;9.30;;;;;;;8.65;73.48;98552.43;1750590;82;21395;-77
2021/06/02 04:48:50;;;;;;;18.73;10.30;;;;;;;8.87;71.79;98552.91;1722659;82;21018;-77
2021/06/02 04:52:02;;;;;;;14.93;9.45;;;;;;;8.92;72.04;98553.78;1750543;81;21430;-77
2021/06/02 04:54:56;;;;;;;23.25;10.00;;;;;;;9.04;71.20;98551.71;1750085;82;21890;-75
2021/06/02 04:58:03;;;;;;;12.20;7.97;;;;;;;9.20;71.25;98549.15;1750357;81;20966;-76
2021/06/02 05:01:17;;;;;;;17.85;10.23;;;;;;;9.48;70.83;98543.41;1750696;82;21005;-75
2021/06/02 05:04:12;;;;;;;17.32;8.43;;;;;;;9.72;70.69;98548.45;1750273;81;20966;-76
2021/06/02 05:07:25;;;;;;;17.15;9.10;;;;;;;9.90;69.25;98551.53;1719403;82;21378;-76
2021/06/02 05:10:22;;;;;;;12.90;9.53;;;;;;;9.92;68.49;98549.94;1749162;82;21134;-76
2021/06/02 05:13:17;;;;;;;17.07;10.32;;;;;;;10.06;68.09;98558.39;1750291;81;20970;-76
2021/06/02 05:16:22;;;;;;;23.02;9.98;;;;;;;10.15;67.56;98552.74;1750427;82;20950;-76
2021/06/02 05:22:38;;;;;;;;;;;;;;;10.29;67.64;98553.94;1753102;82;21041;-76
2021/06/02 05:26:01;;;;;;;18.80;9.10;;;;;;;10.58;65.93;98557.55;1750113;82;21054;-76
2021/06/02 05:29:16;;;;;;;13.60;8.43;;;;;;;10.57;65.96;98554.02;1750235;82;21017;-76
2021/06/02 05:32:35;;;;;;;13.53;8.50;;;;;;;11.12;65.34;98555.78;1750637;82;20974;-76
2021/06/02 05:35:32;;;;;;;25.12;9.20;;;;;;;11.12;65.34;98555.78;1750501;82;28052;-76
2021/06/02 05:38:30;;;;;;;45.15;37.00;;;;;;;11.41;65.23;98563.64;1750391;82;20998;-75
2021/06/02 05:41:13;;;;;;;14.33;9.60;;;;;;;11.65;64.10;98563.09;1750781;81;21114;-76
2021/06/02 05:44:34;;;;;;;20.48;9.83;;;;;;;11.75;63.36;98555.73;1750078;82;21427;-76
2021/06/02 05:47:31;;;;;;;14.45;8.75;;;;;;;11.95;63.70;98563.05;1750714;81;20997;-77
2021/06/02 05:50:35;;;;;;;10.32;6.83;;;;;;;12.27;63.15;98562.69;1750449;82;20986;-76
2021/06/02 05:53:47;;;;;;;11.05;7.87;;;;;;;12.54;62.66;98556.05;1749731;82;20923;-76
2021/06/02 05:56:34;;;;;;;22.13;8.70;;;;;;;12.75;61.46;98558.95;1750499;82;21028;-76
2021/06/02 05:59:42;;;;;;;10.55;8.23;;;;;;;12.98;61.30;98554.16;1750128;82;21012;-76
2021/06/02 06:02:30;;;;;;;19.80;8.93;;;;;;;13.20;60.89;98556.50;1750492;82;20966;-76
2021/06/02 06:05:31;;;;;;;13.70;7.83;;;;;;;13.53;60.62;98558.15;1750418;82;21049;-76
2021/06/02 06:08:17;;;;;;;15.55;9.38;;;;;;;13.68;58.97;98555.84;1750437;82;20985;-76
2021/06/02 06:11:34;;;;;;;13.62;9.15;;;;;;;13.66;58.52;98552.02;1750486;82;21391;-75
2021/06/02 06:14:41;;;;;;;9.75;7.25;;;;;;;13.90;58.37;98563.52;1750202;82;21415;-76
2021/06/02 06:17:48;;;;;;;12.30;7.65;;;;;;;14.05;57.70;98566.90;1750496;82;21033;-76
2021/06/02 06:20:48;;;;;;;14.55;8.08;;;;;;;14.11;57.77;98558.13;1692805;83;21906;-74
2021/06/02 06:23:32;;;;;;;13.08;7.15;;;;;;;14.38;57.95;98555.63;1715957;83;20977;-77
2021/06/02 06:26:15;;;;;;;16.15;7.65;;;;;;;14.65;57.05;98555.59;1718745;82;21030;-77
2021/06/02 06:28:49;;;;;;;11.12;7.65;;;;;;;14.89;56.25;98559.63;1749460;82;21322;-76
2021/06/02 06:31:22;;;;;;;11.05;7.40;;;;;;;15.13;56.07;98552.18;1749520;82;21442;-75
2021/06/02 06:33:48;;;;;;;11.20;7.37;;;;;;;15.33;55.49;98548.31;1749352;82;21386;-75
2021/06/02 06:36:19;;;;;;;11.20;7.92;;;;;;;15.56;54.64;98556.13;1749343;82;20982;-75
2021/06/02 06:39:23;;;;;;;15.72;7.22;;;;;;;15.79;53.87;98548.36;1720220;82;21181;-75
2021/06/02 06:41:50;;;;;;;13.75;6.85;;;;;;;16.04;53.58;98546.27;1749464;81;20962;-76
2021/06/02 06:44:16;;;;;;;9.23;6.25;;;;;;;16.21;54.01;98542.94;1749183;82;20862;-76
2021/06/02 06:46:44;;;;;;;9.28;5.58;;;;;;;16.30;52.42;98551.49;1749274;82;20858;-76
2021/06/02 06:49:10;;;;;;;12.47;5.80;;;;;;;16.33;51.30;98544.63;1749484;82;21380;-76
2021/06/02 06:51:36;;;;;;;7.90;6.12;;;;;;;16.67;52.43;98550.22;1749633;82;21294;-76
2021/06/02 06:54:02;;;;;;;9.88;5.05;;;;;;;17.03;52.67;98541.49;1749280;82;20866;-76
2021/06/02 06:56:28;;;;;;;8.43;5.10;;;;;;;17.46;49.80;98548.67;1749640;81;20885;-76
2021/06/02 06:58:55;;;;;;;5.90;3.55;;;;;;;17.62;47.58;98548.30;1749249;81;20926;-76
2021/06/02 07:01:21;;;;;;;7.25;3.27;;;;;;;17.75;47.72;98548.23;1749600;82;21457;-76
2021/06/02 07:03:47;;;;;;;5.78;2.02;;;;;;;17.74;45.27;98554.84;1749259;82;21675;-76
2021/06/02 07:06:13;;;;;;;4.40;2.00;;;;;;;17.72;42.59;98540.64;1749415;82;20917;-76
2021/06/02 07:08:44;;;;;;;4.20;2.30;;;;;;;17.87;40.49;98542.19;1749464;82;20965;-76
2021/06/02 07:11:13;;;;;;;5.60;2.02;;;;;;;17.97;37.47;98541.10;1749665;82;20955;-75
2021/06/02 07:13:40;;;;;;;3.80;2.60;;;;;;;18.18;41.66;98547.63;1749294;82;20958;-76
2021/06/02 07:16:06;;;;;;;8.38;2.98;;;;;;;18.29;39.12;98542.69;1720242;82;21002;-76
2021/06/02 07:18:32;;;;;;;3.17;2.25;;;;;;;18.31;37.83;98541.23;1749286;81;20882;-76
2021/06/02 07:21:00;;;;;;;3.87;2.17;;;;;;;18.48;37.82;98539.11;1750307;81;21422;-76
2021/06/02 07:23:27;;;;;;;2.30;1.70;;;;;;;18.64;35.28;98543.59;1750529;82;21005;-76
2021/06/02 07:25:52;;;;;;;5.90;2.08;;;;;;;18.75;35.79;98538.06;1750370;82;21505;-76
2021/06/02 07:28:30;;;;;;;7.90;2.33;;;;;;;18.89;35.06;98540.68;1722556;82;21839;-76
2021/06/02 07:30:56;;;;;;;5.25;1.92;;;;;;;19.30;34.80;98535.25;1748012;82;21481;-77
2021/06/02 07:33:22;;;;;;;9.78;3.55;;;;;;;19.79;31.13;98542.16;1750034;82;20942;-77
2021/06/02 07:35:49;;;;;;;5.92;2.55;;;;;;;20.36;30.19;98536.88;1750042;82;20993;-77
2021/06/02 07:38:15;;;;;;;3.55;2.40;;;;;;;20.69;30.16;98541.17;1750648;82;20946;-77
2021/06/02 07:40:41;;;;;;;10.10;2.42;;;;;;;21.45;29.43;98540.95;1750248;82;20967;-77
2021/06/02 07:43:07;;;;;;;6.78;2.40;;;;;;;21.51;30.73;98536.81;1750372;82;21461;-77
2021/06/02 07:45:33;;;;;;;5.80;1.95;;;;;;;21.76;30.83;98532.75;1750126;81;20970;-77
2021/06/02 07:47:59;;;;;;;2.35;1.50;;;;;;;21.78;30.60;98535.97;1750778;82;20913;-77
2021/06/02 07:50:25;;;;;;;2.55;1.55;;;;;;;22.61;29.00;98532.06;1750267;82;20990;-77
2021/06/02 07:52:51;;;;;;;6.47;2.58;;;;;;;22.84;27.54;98528.24;1722944;82;21610;-77
2021/06/02 07:55:19;;;;;;;4.53;1.57;;;;;;;22.06;24.54;98534.21;1750205;82;20866;-77
2021/06/02 07:57:45;;;;;;;3.67;1.50;;;;;;;22.93;24.58;98534.47;1750331;81;20914;-77
2021/06/02 08:00:13;;;;;;;5.17;1.75;;;;;;;23.77;25.10;98540.07;1750335;82;21319;-77
2021/06/02 08:02:39;;;;;;;5.43;2.10;;;;;;;23.09;26.02;98533.97;1750639;81;20938;-77
2021/06/02 08:05:06;;;;;;;3.25;1.70;;;;;;;23.94;24.04;98540.32;1750348;82;21984;-77
2021/06/02 08:07:32;;;;;;;2.05;1.37;;;;;;;23.18;24.46;98543.51;1750369;81;21125;-77
2021/06/02 08:09:58;;;;;;;9.00;1.52;;;;;;;24.20;23.90;98548.91;1722627;82;20881;-77
2021/06/02 08:12:24;;;;;;;3.17;1.67;;;;;;;25.42;24.18;98522.03;1750454;82;20922;-77
2021/06/02 08:14:50;;;;;;;3.77;1.90;;;;;;;25.42;24.18;98522.03;1750393;82;20970;-77
2021/06/02 08:17:18;;;;;;;5.17;2.30;;;;;;;25.93;23.54;98540.69;1750458;81;21896;-77
2021/06/02 08:19:44;;;;;;;;;;;;;;;25.72;23.11;98536.11;1746503;81;20935;-77
2021/06/02 08:22:10;;;;;;;6.35;2.67;;;;;;;25.88;22.13;98536.81;1736423;82;20773;-77
2021/06/02 08:24:40;;;;;;;3.20;2.30;;;;;;;26.73;20.40;98542.23;1736336;82;20899;-77
2021/06/02 08:27:11;;;;;;;13.15;4.85;;;;;;;26.12;20.77;98542.02;1736526;82;21065;-78
2021/06/02 08:29:37;;;;;;;5.53;3.05;;;;;;;27.39;21.18;98538.01;1736289;81;21115;-78
2021/06/02 08:32:04;;;;;;;4.70;2.05;;;;;;;27.72;20.55;98542.21;1715661;82;21030;-78
2021/06/02 08:34:30;;;;;;;10.80;2.45;;;;;;;27.56;21.04;98534.64;1736104;81;21033;-78
2021/06/02 08:36:56;;;;;;;7.12;1.60;;;;;;;27.56;19.22;98540.20;1715852;82;21069;-76
2021/06/02 08:39:22;;;;;;;4.45;1.77;;;;;;;25.60;19.02;98539.24;1736248;82;20904;-75
2021/06/02 08:41:50;;;;;;;3.62;2.08;;;;;;;25.53;22.06;98525.23;1736366;82;21255;-76
2021/06/02 08:44:19;;;;;;;4.78;1.82;;;;;;;25.94;21.29;98533.16;1692399;82;20923;-76
2021/06/02 08:46:46;;;;;;;3.62;1.98;;;;;;;26.11;22.08;98532.09;1715889;82;21418;-77
2021/06/02 08:49:14;;;;;;;3.02;1.50;;;;;;;25.99;21.60;98521.17;1736311;82;21042;-77
2021/06/02 08:51:40;;;;;;;;;;;;;;;25.95;22.16;98525.05;1738974;82;20983;-77
2021/06/02 08:54:06;;;;;;;7.92;1.82;;;;;;;25.96;20.70;98526.65;1736129;82;21093;-77
2021/06/02 08:56:41;;;;;;;5.75;1.82;;;;;;;26.39;21.49;98527.62;1736298;82;20937;-77
2021/06/02 08:59:08;;;;;;;4.40;1.67;;;;;;;24.73;21.59;98523.11;1736217;82;20982;-77
2021/06/02 09:01:34;;;;;;;2.87;1.72;;;;;;;26.65;20.47;98519.88;1736561;82;21018;-77
2021/06/02 09:04:08;;;;;;;3.77;2.20;;;;;;;26.02;21.55;98523.20;1736633;82;21350;-77
2021/06/02 09:06:46;;;;;;;2.83;1.80;;;;;;;25.74;21.87;98525.47;1736381;82;21355;-76
2021/06/02 09:09:14;;;;;;;3.77;1.72;;;;;;;26.64;20.26;98516.09;1736182;82;21041;-76
2021/06/02 09:11:46;;;;;;;4.83;2.15;;;;;;;24.65;22.96;98527.67;1736640;82;22669;-76
2021/06/02 09:14:30;;;;;;;1.77;1.62;;;;;;;23.74;23.30;98521.39;1736547;82;20962;-76
2021/06/02 09:17:02;;;;;;;7.05;1.90;;;;;;;24.37;23.06;98527.02;1736409;82;21018;-77
2021/06/02 09:19:37;;;;;;;3.05;1.55;;;;;;;24.23;23.59;98528.00;1738787;81;21383;-77
2021/06/02 09:22:05;;;;;;;5.25;1.60;;;;;;;25.83;21.16;98523.26;1750057;82;21010;-75
2021/06/02 09:25:02;;;;;;;3.70;1.77;;;;;;;24.33;23.47;98527.48;1750216;82;20961;-75
2021/06/02 09:27:55;;;;;;;4.07;1.40;;;;;;;24.33;23.47;98527.48;1750748;82;20962;-77
2021/06/02 09:30:24;;;;;;;3.80;2.22;;;;;;;23.82;24.23;98528.72;1749320;82;20990;-76
2021/06/02 09:32:57;;;;;;;6.37;2.00;;;;;;;25.79;22.83;98529.31;1724313;82;21153;-77
2021/06/02 09:35:38;;;;;;;5.85;1.75;;;;;;;27.45;21.17;98527.56;1749784;82;20903;-77
2021/06/02 09:38:05;;;;;;;9.65;1.90;;;;;;;28.74;19.51;98526.03;1723150;82;20966;-77
2021/06/02 09:40:37;;;;;;;2.83;1.77;;;;;;;28.57;19.43;98521.92;1750166;82;20962;-77
2021/06/02 09:43:04;;;;;;;5.00;1.82;;;;;;;30.36;17.96;98516.48;1750511;82;20907;-77
2021/06/02 09:45:30;;;;;;;3.15;1.85;;;;;;;30.67;16.49;98524.66;1750158;82;21861;-77
2021/06/02 09:48:04;;;;;;;4.03;1.75;;;;;;;28.57;19.00;98528.89;1750013;82;21045;-77
2021/06/02 09:50:38;;;;;;;5.28;1.70;;;;;;;29.78;18.08;98524.76;1749167;82;21009;-77
2021/06/02 09:53:08;;;;;;;4.25;1.87;;;;;;;28.72;19.58;98517.26;1750475;82;20930;-76
2021/06/02 09:55:39;;;;;;;3.65;1.70;;;;;;;29.72;19.05;98520.74;1750186;82;20970;-76
2021/06/02 09:58:10;;;;;;;3.50;2.00;;;;;;;28.16;19.40;98533.10;1750478;82;21291;-77
2021/06/02 10:00:46;;;;;;;2.45;1.70;;;;;;;27.21;20.19;98516.34;1750380;82;21421;-77
2021/06/02 10:03:16;;;;;;;3.02;1.50;;;;;;;26.11;22.14;98511.84;1722582;82;21423;-76
2021/06/02 10:05:51;;;;;;;2.83;1.60;;;;;;;27.13;20.66;98504.11;1750246;82;20918;-77
2021/06/02 10:08:28;;;;;;;9.18;1.85;;;;;;;25.90;20.65;98521.20;1750411;82;21433;-78
2021/06/02 10:10:54;;;;;;;2.55;1.50;;;;;;;27.11;19.50;98514.22;1750229;82;21323;-76
2021/06/02 10:13:22;;;;;;;5.80;1.82;;;;;;;25.68;21.45;98517.19;1722606;82;20958;-76
2021/06/02 10:15:49;;;;;;;3.15;2.10;;;;;;;26.20;21.42;98518.54;1750118;82;20966;-76
2021/06/02 10:18:33;;;;;;;2.75;2.00;;;;;;;26.31;20.69;98516.73;1750247;82;21013;-76
2021/06/02 10:21:05;;;;;;;5.95;1.67;;;;;;;26.93;20.61;98515.34;1749951;81;20977;-77
2021/06/02 10:23:36;;;;;;;5.47;1.95;;;;;;;26.73;20.59;98527.74;1750088;82;21028;-77
2021/06/02 10:26:04;;;;;;;6.62;2.17;;;;;;;26.95;20.72;98502.45;1750039;82;21355;-76
2021/06/02 10:28:32;;;;;;;5.65;2.00;;;;;;;27.81;20.04;98508.50;1750476;81;20954;-77
2021/06/02 10:31:00;;;;;;;4.83;1.90;;;;;;;27.06;21.28;98521.49;1750230;81;20973;-77
2021/06/02 10:33:28;;;;;;;5.93;2.43;;;;;;;25.40;22.07;98521.61;1722989;82;21088;-77
2021/06/02 10:35:56;;;;;;;2.60;1.62;;;;;;;24.84;22.81;98524.72;1750348;82;21045;-77
2021/06/02 10:38:22;;;;;;;5.28;2.27;;;;;;;27.28;20.68;98514.83;1750887;82;21319;-77
2021/06/02 10:40:48;;;;;;;5.10;1.98;;;;;;;27.93;19.33;98525.52;1750147;82;20885;-77
2021/06/02 10:43:19;;;;;;;6.35;2.50;;;;;;;28.00;19.15;98519.42;1750149;82;20961;-77
2021/06/02 10:45:56;;;;;;;5.55;1.95;;;;;;;29.84;17.88;98520.98;1750154;81;21012;-76
2021/06/02 10:48:55;;;;;;;5.28;1.80;;;;;;;29.92;17.47;98513.42;1750214;82;21130;-76
2021/06/02 10:51:38;;;;;;;3.58;2.10;;;;;;;29.22;18.13;98523.92;1722292;82;21845;-76
2021/06/02 10:54:17;;;;;;;3.42;1.52;;;;;;;28.42;18.38;98528.57;1750204;81;20910;-76
2021/06/02 10:57:04;;;;;;;4.30;1.90;;;;;;;31.00;16.32;98525.59;1749978;82;20911;-77
2021/06/02 10:59:36;;;;;;;3.98;1.62;;;;;;;29.59;16.95;98528.50;1750264;81;21457;-76
2021/06/02 11:02:14;;;;;;;5.15;1.90;;;;;;;30.26;15.40;98520.88;1722904;82;21066;-77
2021/06/02 11:04:43;;;;;;;2.83;1.70;;;;;;;31.76;15.69;98524.70;1750344;82;21374;-77
2021/06/02 11:07:21;;;;;;;5.40;1.55;;;;;;;30.00;16.68;98522.02;1750373;82;21394;-77
2021/06/02 11:10:09;;;;;;;;;;;;;;;30.33;15.81;98514.66;1752835;81;21455;-77
2021/06/02 11:12:59;;;;;;;3.22;1.57;;;;;;;30.15;15.71;98515.86;1750272;82;20414;-76
2021/06/02 11:15:36;;;;;;;4.72;1.60;;;;;;;30.40;16.30;98519.45;1750300;82;21044;-77
2021/06/02 11:18:18;;;;;;;;;;;;;;;29.52;16.70;98515.91;1752905;82;20938;-77
2021/06/02 11:20:54;;;;;;;4.15;1.55;;;;;;;30.83;16.21;98516.03;1719059;82;20163;-77
2021/06/02 11:23:22;;;;;;;6.30;1.50;;;;;;;30.56;15.67;98509.27;1744439;82;20922;-77
2021/06/02 11:25:49;;;;;;;2.90;1.70;;;;;;;30.73;15.91;98511.87;1715008;82;21469;-77
2021/06/02 11:28:46;;;;;;;3.87;1.80;;;;;;;31.66;15.16;98508.95;1744271;82;21115;-77
2021/06/02 11:31:23;;;;;;;;;;;;;;;33.12;13.59;98504.18;1717570;82;20947;-76
2021/06/02 11:33:49;;;;;;;;;;;;;;;30.70;16.15;98517.67;1747163;81;20099;-78
2021/06/02 11:36:15;;;;;;;3.12;1.45;;;;;;;31.07;15.67;98514.98;1744278;82;20180;-78
2021/06/02 11:38:42;;;;;;;4.78;1.62;;;;;;;31.95;14.86;98510.20;1744278;82;20910;-78
2021/06/02 11:41:10;;;;;;;3.02;1.60;;;;;;;29.31;16.14;98522.99;1744395;82;21301;-78
2021/06/02 11:43:36;;;;;;;4.20;2.22;;;;;;;30.85;15.81;98508.06;1715149;82;21037;-78
2021/06/02 11:46:03;;;;;;;3.47;1.40;;;;;;;30.20;16.11;98506.48;1744375;82;20950;-78
2021/06/02 11:48:30;;;;;;;2.72;1.57;;;;;;;31.21;16.25;98512.75;1744310;82;21002;-78
2021/06/02 11:50:58;;;;;;;2.52;1.77;;;;;;;32.21;14.22;98518.02;1744427;82;21076;-78
2021/06/02 11:53:39;;;;;;;2.50;1.70;;;;;;;32.92;13.91;98515.23;1715061;82;21166;-78
2021/06/02 11:56:05;;;;;;;3.67;1.80;;;;;;;28.99;16.57;98517.84;1725259;82;20906;-77
2021/06/02 11:58:31;;;;;;;2.17;1.67;;;;;;;31.44;15.04;98515.26;1715320;82;20961;-77
2021/06/02 12:00:57;;;;;;;12.00;2.50;;;;;;;31.94;15.18;98504.41;1744839;82;20954;-77
2021/06/02 12:03:24;;;;;;;4.78;1.40;;;;;;;32.31;14.91;98508.59;1744494;82;21480;-77
2021/06/02 12:05:53;;;;;;;2.27;1.35;;;;;;;31.87;14.60;98515.66;1744540;82;21022;-77
2021/06/02 12:08:18;;;;;;;6.33;1.70;;;;;;;33.06;14.24;98503.84;1744062;82;21045;-77
2021/06/02 12:10:48;;;;;;;2.10;1.50;;;;;;;30.04;15.81;98512.43;1744864;82;20947;-77
2021/06/02 12:13:30;;;;;;;11.38;3.45;;;;;;;30.52;15.90;98505.09;1743719;82;20998;-77
2021/06/02 12:16:01;;;;;;;4.47;1.55;;;;;;;31.87;15.73;98504.45;1715553;82;21065;-76
2021/06/02 12:18:42;;;;;;;2.75;1.57;;;;;;;33.42;14.22;98509.69;1744372;82;21120;-77
2021/06/02 12:21:27;;;;;;;4.37;1.70;;;;;;;30.50;15.81;98506.06;1747279;82;21461;-77
2021/06/02 12:24:05;;;;;;;5.00;1.60;;;;;;;32.02;13.80;98514.36;1749989;82;21018;-77
2021/06/02 12:26:41;;;;;;;4.83;2.07;;;;;;;30.88;15.33;98516.24;1750481;82;20946;-78